createdAt,value
2023-04-24T00:01:40.430Z,10.10
2023-04-24T00:04:08.289Z,10.10
2023-04-24T00:06:35.372Z,10.10
2023-04-24T00:09:02.332Z,10.10
2023-04-24T00:11:29.501Z,10.10
2023-04-24T00:13:56.987Z,10.00
2023-04-24T00:16:24.664Z,10.00
2023-04-24T00:18:53.718Z,9.90
2023-04-24T00:21:21.479Z,10.00
2023-04-24T00:23:48.942Z,9.90
2023-04-24T00:26:15.893Z,9.90
2023-04-24T00:28:42.723Z,9.90
2023-04-24T00:31:09.653Z,9.90
2023-04-24T00:33:36.882Z,9.90
2023-04-24T00:36:03.841Z,9.90
2023-04-24T00:38:30.637Z,9.90
2023-04-24T00:40:57.463Z,9.90
2023-04-24T00:43:24.308Z,9.80
2023-04-24T00:45:51.212Z,9.80
2023-04-24T00:48:18.745Z,9.80
2023-04-24T00:50:46.256Z,9.80
2023-04-24T00:53:13.167Z,9.80
2023-04-24T00:55:40.050Z,9.80
2023-04-24T00:58:06.934Z,9.80
2023-04-24T01:00:34.106Z,9.80
2023-04-24T01:03:05.331Z,9.80
2023-04-24T01:05:32.758Z,9.80
2023-04-24T01:08:00.935Z,9.70
2023-04-24T01:10:30.486Z,9.70
2023-04-24T01:12:57.681Z,9.70
2023-04-24T01:15:24.495Z,9.70
2023-04-24T01:17:51.403Z,9.70
2023-04-24T01:20:18.908Z,9.60
2023-04-24T01:22:46.033Z,9.60
2023-04-24T01:25:13.135Z,9.60
2023-04-24T01:27:39.969Z,9.60
2023-04-24T01:30:08.566Z,9.60
2023-04-24T01:32:36.299Z,9.60
2023-04-24T01:35:03.448Z,9.60
2023-04-24T01:37:30.369Z,9.50
2023-04-24T01:39:57.354Z,9.50
2023-04-24T01:42:24.286Z,9.50
2023-04-24T01:44:52.282Z,9.50
2023-04-24T01:47:19.097Z,9.50
2023-04-24T01:49:48.875Z,9.50
2023-04-24T01:52:16.016Z,9.40
2023-04-24T01:54:42.933Z,9.40
2023-04-24T01:57:10.125Z,9.40
2023-04-24T01:59:37.440Z,9.40
2023-04-24T02:02:05.067Z,9.40
2023-04-24T02:04:31.947Z,9.40
2023-04-24T02:06:58.921Z,9.30
2023-04-24T02:09:25.993Z,9.30
2023-04-24T02:11:52.849Z,9.30
2023-04-24T02:14:19.739Z,9.30
2023-04-24T02:16:46.941Z,9.30
2023-04-24T02:19:13.967Z,9.30
2023-04-24T02:21:40.891Z,9.30
2023-04-24T02:24:07.768Z,9.30
2023-04-24T02:26:34.630Z,9.30
2023-04-24T02:29:01.541Z,9.30
2023-04-24T02:31:28.511Z,9.30
2023-04-24T02:33:55.417Z,9.30
2023-04-24T02:36:22.330Z,9.30
2023-04-24T02:38:49.236Z,9.30
2023-04-24T02:41:16.036Z,9.30
2023-04-24T02:43:42.878Z,9.30
2023-04-24T02:46:09.690Z,9.30
2023-04-24T02:48:36.586Z,9.30
2023-04-24T02:51:03.561Z,9.30
2023-04-24T02:53:31.635Z,9.30
2023-04-24T02:55:58.409Z,9.30
2023-04-24T02:58:26.021Z,9.30
2023-04-24T03:00:59.239Z,9.30
2023-04-24T03:03:26.454Z,9.30
2023-04-24T03:05:53.528Z,9.20
2023-04-24T03:08:20.402Z,9.20
2023-04-24T03:10:48.420Z,9.20
2023-04-24T03:13:16.228Z,9.10
2023-04-24T03:15:43.268Z,9.10
2023-04-24T03:18:10.262Z,9.10
2023-04-24T03:20:38.579Z,9.10
2023-04-24T03:23:05.732Z,9.10
2023-04-24T03:25:32.629Z,9.10
2023-04-24T03:27:59.523Z,9.10
2023-04-24T03:30:26.397Z,9.10
2023-04-24T03:32:53.381Z,9.00
2023-04-24T03:35:20.463Z,9.00
2023-04-24T03:37:47.297Z,9.00
2023-04-24T03:40:14.216Z,9.00
2023-04-24T03:42:41.150Z,9.00
2023-04-24T03:45:08.765Z,9.00
2023-04-24T03:47:35.726Z,9.00
2023-04-24T03:50:03.044Z,8.90
2023-04-24T03:52:29.927Z,8.90
2023-04-24T03:54:56.834Z,8.90
2023-04-24T03:57:23.655Z,8.90
2023-04-24T03:59:50.508Z,8.90
2023-04-24T04:02:17.528Z,8.90
2023-04-24T04:04:44.655Z,8.90
2023-04-24T04:07:12.307Z,8.90
2023-04-24T04:09:39.188Z,8.90
2023-04-24T04:12:06.114Z,8.90
2023-04-24T04:14:33.083Z,8.90
2023-04-24T04:17:00.032Z,8.90
2023-04-24T04:19:26.884Z,8.90
2023-04-24T04:21:54.589Z,8.90
2023-04-24T04:24:25.217Z,8.90
2023-04-24T04:26:53.318Z,8.90
2023-04-24T04:29:20.296Z,8.90
2023-04-24T04:31:47.436Z,9.00
2023-04-24T04:34:15.295Z,8.90
2023-04-24T04:36:43.973Z,8.90
2023-04-24T04:39:10.908Z,8.90
2023-04-24T04:41:38.821Z,9.00
2023-04-24T04:44:05.812Z,8.90
2023-04-24T04:46:39.939Z,9.00
2023-04-24T04:49:07.273Z,8.90
2023-04-24T04:51:34.059Z,9.00
2023-04-24T04:54:01.195Z,9.00
2023-04-24T04:56:27.997Z,9.00
2023-04-24T04:58:55.010Z,9.00
2023-04-24T05:01:24.159Z,9.00
2023-04-24T05:03:51.239Z,9.00
2023-04-24T05:06:18.224Z,9.00
2023-04-24T05:08:45.029Z,9.00
2023-04-24T05:11:11.962Z,9.00
2023-04-24T05:13:40.994Z,9.00
2023-04-24T05:16:08.221Z,9.00
2023-04-24T05:18:35.086Z,9.10
2023-04-24T05:21:02.434Z,9.20
2023-04-24T05:23:29.309Z,9.20
2023-04-24T05:25:56.147Z,9.30
2023-04-24T05:28:23.022Z,9.30
2023-04-24T05:30:49.840Z,9.20
2023-04-24T05:33:16.603Z,9.30
2023-04-24T05:35:47.769Z,9.30
2023-04-24T05:38:18.773Z,9.30
2023-04-24T05:40:45.794Z,9.40
2023-04-24T05:43:13.337Z,9.60
2023-04-24T05:45:40.451Z,9.60
2023-04-24T05:48:07.583Z,9.60
2023-04-24T05:50:36.267Z,9.70
2023-04-24T05:53:04.305Z,9.60
2023-04-24T05:55:32.420Z,9.60
2023-04-24T05:57:59.522Z,9.70
2023-04-24T06:00:26.983Z,9.70
2023-04-24T06:02:54.357Z,9.80
2023-04-24T06:05:21.476Z,9.80
2023-04-24T06:07:49.457Z,9.90
2023-04-24T06:10:16.599Z,10.00
2023-04-24T06:12:43.377Z,10.10
2023-04-24T06:15:10.879Z,10.20
2023-04-24T06:17:37.760Z,10.30
2023-04-24T06:20:06.772Z,10.40
2023-04-24T06:22:33.710Z,10.50
2023-04-24T06:25:01.826Z,10.60
2023-04-24T06:27:28.664Z,10.70
2023-04-24T06:29:56.223Z,10.70
2023-04-24T06:32:25.365Z,10.60
2023-04-24T06:34:53.459Z,10.50
2023-04-24T06:37:21.590Z,10.60
2023-04-24T06:39:48.661Z,10.60
2023-04-24T06:42:15.890Z,10.60
2023-04-24T06:44:43.014Z,10.70
2023-04-24T06:47:16.379Z,10.70
2023-04-24T06:49:43.784Z,10.80
2023-04-24T06:52:10.798Z,10.90
2023-04-24T06:54:37.692Z,11.00
2023-04-24T06:57:04.681Z,11.20
2023-04-24T06:59:31.747Z,11.20
2023-04-24T07:01:58.950Z,11.30
2023-04-24T07:04:26.507Z,11.40
2023-04-24T07:06:56.831Z,11.60
2023-04-24T07:09:24.811Z,11.80
2023-04-24T07:11:52.545Z,11.90
2023-04-24T07:14:19.382Z,12.00
2023-04-24T07:16:46.627Z,12.10
2023-04-24T07:19:14.338Z,12.10
2023-04-24T07:21:41.656Z,12.10
2023-04-24T07:24:11.976Z,12.00
2023-04-24T07:26:40.172Z,12.00
2023-04-24T07:29:07.672Z,11.90
2023-04-24T07:31:34.760Z,11.90
2023-04-24T07:34:01.844Z,12.10
2023-04-24T07:36:29.091Z,12.30
2023-04-24T07:38:57.600Z,12.40
2023-04-24T07:41:25.472Z,12.40
2023-04-24T07:43:53.570Z,12.30
2023-04-24T07:46:21.386Z,12.20
2023-04-24T07:48:58.544Z,12.00
2023-04-24T07:51:33.664Z,11.80
2023-04-24T07:54:00.518Z,12.00
2023-04-24T07:56:28.088Z,11.90
2023-04-24T07:58:55.009Z,12.10
2023-04-24T08:01:22.000Z,12.20
2023-04-24T08:03:49.211Z,12.40
2023-04-24T08:06:16.272Z,12.40
2023-04-24T08:08:43.161Z,12.50
2023-04-24T08:11:09.994Z,12.50
2023-04-24T08:13:36.777Z,12.60
2023-04-24T08:16:03.754Z,12.50
2023-04-24T08:18:30.673Z,12.30
2023-04-24T08:21:02.377Z,12.20
2023-04-24T08:23:30.630Z,11.90
2023-04-24T08:25:58.337Z,11.80
2023-04-24T08:28:25.226Z,11.70
2023-04-24T08:30:55.633Z,11.60
2023-04-24T08:33:25.872Z,11.60
2023-04-24T08:35:53.620Z,11.60
2023-04-24T08:38:20.697Z,11.60
2023-04-24T08:40:50.668Z,11.20
2023-04-24T08:43:18.094Z,11.10
2023-04-24T08:45:45.546Z,11.20
2023-04-24T08:48:23.520Z,11.40
2023-04-24T08:50:58.232Z,11.50
2023-04-24T08:53:26.311Z,11.50
2023-04-24T08:55:56.594Z,11.50
2023-04-24T08:58:27.009Z,11.70
2023-04-24T09:00:56.593Z,11.70
2023-04-24T09:03:23.966Z,11.70
2023-04-24T09:05:51.646Z,11.70
2023-04-24T09:08:20.393Z,11.60
2023-04-24T09:10:49.827Z,11.50
2023-04-24T09:13:19.690Z,11.30
2023-04-24T09:15:46.872Z,11.40
2023-04-24T09:18:13.712Z,11.50
2023-04-24T09:21:05.368Z,11.60
2023-04-24T09:23:33.015Z,12.00
2023-04-24T09:26:01.594Z,12.20
2023-04-24T09:28:36.461Z,12.30
2023-04-24T09:31:05.218Z,12.40
2023-04-24T09:33:32.164Z,12.40
2023-04-24T09:36:00.243Z,12.50
2023-04-24T09:38:38.408Z,12.60
2023-04-24T09:41:09.739Z,12.70
2023-04-24T09:43:36.939Z,12.60
2023-04-24T09:46:10.596Z,12.70
2023-04-24T09:48:38.668Z,12.70
2023-04-24T09:51:16.883Z,12.90
2023-04-24T09:53:47.760Z,13.10
2023-04-24T09:56:14.642Z,13.50
2023-04-24T09:58:41.542Z,13.70
2023-04-24T10:01:08.534Z,13.90
2023-04-24T10:03:37.025Z,13.90
2023-04-24T10:06:09.976Z,13.90
2023-04-24T10:08:38.720Z,14.10
2023-04-24T10:11:06.119Z,14.20
2023-04-24T10:13:33.838Z,14.30
2023-04-24T10:16:02.469Z,14.50
2023-04-24T10:18:29.909Z,14.30
2023-04-24T10:20:58.499Z,14.00
2023-04-24T10:23:26.953Z,13.80
2023-04-24T10:25:54.794Z,13.70
2023-04-24T10:28:22.733Z,13.80
2023-04-24T10:30:50.997Z,13.60
2023-04-24T10:33:19.167Z,13.70
2023-04-24T10:35:50.126Z,13.70
2023-04-24T10:38:26.106Z,13.90
2023-04-24T10:40:58.115Z,14.20
2023-04-24T10:43:25.034Z,14.50
2023-04-24T10:46:17.479Z,14.80
2023-04-24T10:48:45.380Z,14.60
2023-04-24T10:51:16.493Z,14.10
2023-04-24T10:53:43.438Z,12.80
2023-04-24T10:56:14.541Z,11.40
2023-04-24T10:58:50.416Z,10.70
2023-04-24T11:01:39.221Z,10.20
2023-04-24T11:04:06.213Z,10.00
2023-04-24T11:06:36.853Z,10.00
2023-04-24T11:09:07.235Z,10.30
2023-04-24T11:11:35.122Z,10.70
2023-04-24T11:14:03.672Z,11.10
2023-04-24T11:16:52.963Z,11.60
2023-04-24T11:19:27.376Z,12.40
2023-04-24T11:22:04.951Z,13.40
2023-04-24T11:24:40.419Z,14.40
2023-04-24T11:27:15.174Z,15.50
2023-04-24T11:29:42.824Z,16.10
2023-04-24T11:32:33.677Z,16.10
2023-04-24T11:35:08.024Z,15.30
2023-04-24T11:37:42.643Z,15.10
2023-04-24T11:40:14.649Z,14.70
2023-04-24T11:42:46.063Z,15.10
2023-04-24T11:45:18.236Z,15.40
2023-04-24T11:47:46.364Z,15.30
2023-04-24T11:50:15.842Z,15.40
2023-04-24T11:52:44.702Z,16.10
2023-04-24T11:55:20.802Z,17.30
2023-04-24T11:57:57.542Z,17.90
2023-04-24T12:00:37.302Z,18.00
2023-04-24T12:03:06.666Z,17.50
2023-04-24T12:05:33.917Z,17.10
2023-04-24T12:08:00.994Z,17.20
2023-04-24T12:10:30.445Z,17.00
2023-04-24T12:12:58.299Z,16.40
2023-04-24T12:15:25.784Z,16.10
2023-04-24T12:17:53.830Z,16.30
2023-04-24T12:20:33.358Z,16.00
2023-04-24T12:23:02.061Z,16.30
2023-04-24T12:25:31.102Z,16.90
2023-04-24T12:28:07.357Z,17.40
2023-04-24T12:30:49.300Z,17.60
2023-04-24T12:33:22.900Z,17.50
2023-04-24T12:35:54.286Z,17.20
2023-04-24T12:38:25.584Z,17.30
2023-04-24T12:41:05.396Z,17.70
2023-04-24T12:43:32.660Z,18.20
2023-04-24T12:46:00.184Z,18.70
2023-04-24T12:48:30.871Z,18.60
2023-04-24T12:51:03.631Z,18.00
2023-04-24T12:53:32.093Z,17.40
2023-04-24T12:55:59.122Z,16.80
2023-04-24T12:58:26.177Z,16.70
2023-04-24T13:00:53.237Z,16.40
2023-04-24T13:03:20.626Z,16.00
2023-04-24T13:05:47.562Z,15.60
2023-04-24T13:08:14.349Z,14.90
2023-04-24T13:10:42.388Z,14.60
2023-04-24T13:13:09.969Z,14.10
2023-04-24T13:15:36.922Z,13.60
2023-04-24T13:18:04.490Z,13.50
2023-04-24T13:20:31.589Z,13.80
2023-04-24T13:22:58.370Z,14.40
2023-04-24T13:25:26.088Z,15.20
2023-04-24T13:27:53.011Z,15.80
2023-04-24T13:30:20.073Z,16.50
2023-04-24T13:32:46.914Z,17.50
2023-04-24T13:35:13.795Z,18.20
2023-04-24T13:37:40.668Z,18.70
2023-04-24T13:40:08.246Z,18.80
2023-04-24T13:42:35.589Z,18.10
2023-04-24T13:45:13.864Z,17.30
2023-04-24T13:47:51.902Z,16.50
2023-04-24T13:50:19.532Z,16.50
2023-04-24T13:52:46.353Z,16.60
2023-04-24T13:55:13.412Z,16.80
2023-04-24T13:57:40.226Z,17.60
2023-04-24T14:00:07.847Z,17.90
2023-04-24T14:02:34.783Z,18.30
2023-04-24T14:05:01.901Z,17.60
2023-04-24T14:07:29.558Z,17.00
2023-04-24T14:09:56.705Z,16.90
2023-04-24T14:12:23.643Z,16.60
2023-04-24T14:14:50.581Z,15.90
2023-04-24T14:17:17.340Z,15.50
2023-04-24T14:19:44.240Z,15.20
2023-04-24T14:22:11.175Z,15.10
2023-04-24T14:24:37.961Z,15.30
2023-04-24T14:27:04.867Z,15.50
2023-04-24T14:29:32.340Z,16.40
2023-04-24T14:32:00.743Z,17.00
2023-04-24T14:34:27.753Z,17.30
2023-04-24T14:36:55.115Z,17.90
2023-04-24T14:39:22.207Z,18.40
2023-04-24T14:41:49.251Z,18.70
2023-04-24T14:44:16.269Z,18.30
2023-04-24T14:46:43.476Z,17.30
2023-04-24T14:49:10.866Z,16.90
2023-04-24T14:51:37.992Z,17.30
2023-04-24T14:54:05.025Z,16.80
2023-04-24T14:56:31.896Z,16.80
2023-04-24T14:58:58.857Z,17.20
2023-04-24T15:01:26.383Z,17.70
2023-04-24T15:03:53.634Z,17.80
2023-04-24T15:06:21.322Z,18.10
2023-04-24T15:08:50.214Z,17.90
2023-04-24T15:11:17.862Z,16.80
2023-04-24T15:13:46.681Z,16.10
2023-04-24T15:16:14.100Z,16.10
2023-04-24T15:18:41.116Z,16.00
2023-04-24T15:21:07.974Z,15.80
2023-04-24T15:23:34.863Z,15.70
2023-04-24T15:26:02.589Z,15.50
2023-04-24T15:28:29.390Z,15.40
2023-04-24T15:30:56.235Z,15.50
2023-04-24T15:33:23.110Z,15.70
2023-04-24T15:35:50.115Z,15.60
2023-04-24T15:38:16.955Z,15.50
2023-04-24T15:40:43.764Z,15.40
2023-04-24T15:43:11.767Z,15.20
2023-04-24T15:45:38.832Z,15.20
2023-04-24T15:48:06.149Z,15.10
2023-04-24T15:50:33.150Z,15.00
2023-04-24T15:52:59.994Z,14.80
2023-04-24T15:55:27.961Z,14.60
2023-04-24T15:57:55.444Z,14.30
2023-04-24T16:00:22.273Z,14.10
2023-04-24T16:02:50.486Z,14.10
2023-04-24T16:05:19.887Z,14.40
2023-04-24T16:07:46.765Z,14.20
2023-04-24T16:10:13.908Z,14.00
2023-04-24T16:12:40.931Z,14.10
2023-04-24T16:15:08.188Z,13.90
2023-04-24T16:17:35.149Z,13.60
2023-04-24T16:20:03.431Z,13.50
2023-04-24T16:22:30.406Z,13.40
2023-04-24T16:24:58.597Z,13.40
2023-04-24T16:27:26.029Z,13.30
2023-04-24T16:29:53.409Z,13.30
2023-04-24T16:32:21.007Z,13.30
2023-04-24T16:34:47.966Z,13.20
2023-04-24T16:37:14.920Z,13.00
2023-04-24T16:39:45.130Z,12.80
2023-04-24T16:42:15.917Z,12.70
2023-04-24T16:44:43.571Z,12.60
2023-04-24T16:47:14.814Z,12.50
2023-04-24T16:49:42.110Z,12.40
2023-04-24T16:52:09.317Z,12.40
2023-04-24T16:54:36.339Z,12.40
2023-04-24T16:57:04.411Z,12.30
2023-04-24T16:59:33.975Z,12.40
2023-04-24T17:02:04.049Z,12.40
2023-04-24T17:04:32.350Z,12.40
2023-04-24T17:06:59.369Z,12.40
2023-04-24T17:09:26.357Z,12.30
2023-04-24T17:11:53.272Z,12.20
2023-04-24T17:14:20.253Z,12.10
2023-04-24T17:16:47.361Z,12.10
2023-04-24T17:19:15.232Z,12.00
2023-04-24T17:21:42.104Z,11.90
2023-04-24T17:24:08.967Z,11.90
2023-04-24T17:26:35.955Z,11.70
2023-04-24T17:29:02.839Z,11.60
2023-04-24T17:31:29.788Z,11.50
2023-04-24T17:33:56.718Z,11.50
2023-04-24T17:36:23.585Z,11.40
2023-04-24T17:38:50.573Z,11.30
2023-04-24T17:41:17.805Z,11.20
2023-04-24T17:43:45.790Z,11.20
2023-04-24T17:46:13.331Z,11.10
2023-04-24T17:48:40.357Z,11.00
2023-04-24T17:51:07.211Z,10.90
2023-04-24T17:53:34.119Z,10.80
2023-04-24T17:56:03.425Z,10.70
2023-04-24T17:58:31.307Z,10.70
2023-04-24T18:00:58.153Z,10.60
2023-04-24T18:03:25.104Z,10.50
2023-04-24T18:05:52.105Z,10.50
2023-04-24T18:08:18.982Z,10.40
2023-04-24T18:10:46.024Z,10.30
2023-04-24T18:13:12.803Z,10.30
2023-04-24T18:15:43.150Z,10.20
2023-04-24T18:18:11.170Z,10.10
2023-04-24T18:20:38.417Z,10.00
2023-04-24T18:23:05.948Z,10.00
2023-04-24T18:25:32.957Z,9.90
2023-04-24T18:27:59.767Z,9.80
2023-04-24T18:30:27.030Z,9.70
2023-04-24T18:32:54.149Z,9.70
2023-04-24T18:35:21.832Z,9.50
2023-04-24T18:37:49.210Z,9.40
2023-04-24T18:40:16.519Z,9.30
2023-04-24T18:42:43.714Z,9.20
2023-04-24T18:45:14.404Z,9.10
2023-04-24T18:47:41.728Z,9.20
2023-04-24T18:50:09.037Z,9.10
2023-04-24T18:52:35.952Z,9.00
2023-04-24T18:55:03.979Z,9.00
2023-04-24T18:57:30.955Z,8.90
2023-04-24T18:59:57.755Z,8.80
2023-04-24T19:02:24.903Z,8.80
2023-04-24T19:04:51.752Z,8.90
2023-04-24T19:07:19.847Z,8.90
2023-04-24T19:09:46.775Z,8.80
2023-04-24T19:12:13.624Z,8.80
2023-04-24T19:14:40.880Z,8.70
2023-04-24T19:17:10.133Z,8.70
2023-04-24T19:19:37.157Z,8.60
2023-04-24T19:22:04.398Z,8.60
2023-04-24T19:24:33.481Z,8.40
2023-04-24T19:27:00.628Z,8.40
2023-04-24T19:29:27.623Z,8.40
2023-04-24T19:31:55.626Z,8.40
2023-04-24T19:34:22.490Z,8.30
2023-04-24T19:36:49.403Z,8.30
2023-04-24T19:39:16.579Z,8.20
2023-04-24T19:41:43.364Z,8.10
2023-04-24T19:44:10.621Z,8.10
2023-04-24T19:46:37.608Z,8.10
2023-04-24T19:49:04.483Z,8.10
2023-04-24T19:51:32.372Z,8.10
2023-04-24T19:53:59.876Z,8.10
2023-04-24T19:56:26.660Z,8.00
2023-04-24T19:58:53.452Z,8.00
2023-04-24T20:01:20.320Z,8.00
2023-04-24T20:03:47.258Z,8.00
2023-04-24T20:06:14.132Z,7.90
2023-04-24T20:08:42.664Z,7.90
2023-04-24T20:11:09.507Z,7.90
2023-04-24T20:13:36.369Z,7.90
2023-04-24T20:16:04.441Z,7.90
2023-04-24T20:18:31.350Z,7.90
2023-04-24T20:20:59.881Z,7.90
2023-04-24T20:23:27.304Z,7.90
2023-04-24T20:25:58.425Z,8.00
2023-04-24T20:28:30.367Z,8.00
2023-04-24T20:30:58.846Z,7.90
2023-04-24T20:33:27.997Z,7.90
2023-04-24T20:35:54.958Z,7.90
2023-04-24T20:38:22.864Z,7.90
2023-04-24T20:40:57.820Z,7.90
2023-04-24T20:43:28.839Z,7.90
2023-04-24T20:45:58.659Z,7.90
2023-04-24T20:48:26.538Z,7.90
2023-04-24T20:50:56.178Z,7.90
2023-04-24T20:53:23.714Z,7.90
2023-04-24T20:55:50.667Z,8.00
2023-04-24T20:58:23.968Z,8.00
2023-04-24T21:00:51.681Z,7.90
2023-04-24T21:03:19.054Z,7.90
2023-04-24T21:05:46.003Z,8.00
2023-04-24T21:08:13.032Z,7.90
2023-04-24T21:10:39.814Z,7.80
2023-04-24T21:13:06.586Z,7.70
2023-04-24T21:15:33.973Z,7.70
2023-04-24T21:18:01.356Z,7.70
2023-04-24T21:20:28.225Z,7.60
2023-04-24T21:22:55.038Z,7.60
2023-04-24T21:25:21.883Z,7.60
2023-04-24T21:27:48.828Z,7.50
2023-04-24T21:30:15.690Z,7.50
2023-04-24T21:32:42.521Z,7.40
2023-04-24T21:35:09.877Z,7.30
2023-04-24T21:37:37.947Z,7.30
2023-04-24T21:40:05.117Z,7.30
2023-04-24T21:42:32.025Z,7.30
2023-04-24T21:44:58.829Z,7.30
2023-04-24T21:47:25.826Z,7.40
2023-04-24T21:49:52.657Z,7.40
2023-04-24T21:52:19.440Z,7.50
2023-04-24T21:54:46.412Z,7.50
2023-04-24T21:57:13.271Z,7.50
2023-04-24T21:59:40.294Z,7.50
2023-04-24T22:02:07.130Z,7.50
2023-04-24T22:04:33.944Z,7.60
2023-04-24T22:07:01.342Z,7.60
2023-04-24T22:09:28.150Z,7.60
2023-04-24T22:11:55.045Z,7.60
2023-04-24T22:14:22.023Z,7.60
2023-04-24T22:16:50.326Z,7.60
2023-04-24T22:19:17.143Z,7.60
2023-04-24T22:21:44.014Z,7.50
2023-04-24T22:24:10.783Z,7.40
2023-04-24T22:26:37.613Z,7.30
2023-04-24T22:29:04.464Z,7.20
2023-04-24T22:31:31.857Z,7.20
2023-04-24T22:33:58.694Z,7.20
2023-04-24T22:36:26.693Z,7.10
2023-04-24T22:38:53.449Z,7.10
2023-04-24T22:41:21.690Z,7.10
2023-04-24T22:43:48.789Z,7.20
2023-04-24T22:46:16.299Z,7.20
2023-04-24T22:48:43.095Z,7.20
2023-04-24T22:51:10.757Z,7.20
2023-04-24T22:53:37.525Z,7.30
2023-04-24T22:56:04.616Z,7.30
2023-04-24T22:58:32.013Z,7.30
2023-04-24T23:00:59.120Z,7.40
2023-04-24T23:03:26.167Z,7.40
2023-04-24T23:05:53.194Z,7.40
2023-04-24T23:08:19.927Z,7.30
2023-04-24T23:10:47.701Z,7.30
2023-04-24T23:13:14.506Z,7.30
2023-04-24T23:15:42.099Z,7.30
2023-04-24T23:18:08.879Z,7.30
2023-04-24T23:20:35.898Z,7.20
2023-04-24T23:23:02.713Z,7.20
2023-04-24T23:25:29.491Z,7.10
2023-04-24T23:27:56.634Z,7.10
2023-04-24T23:30:23.552Z,7.00
2023-04-24T23:32:50.487Z,7.10
2023-04-24T23:35:17.346Z,7.10
2023-04-24T23:37:44.234Z,7.10
2023-04-24T23:40:11.330Z,7.10
2023-04-24T23:42:38.346Z,7.10
2023-04-24T23:45:05.565Z,7.10
2023-04-24T23:47:32.388Z,7.10
2023-04-24T23:49:59.227Z,7.10
2023-04-24T23:52:26.070Z,7.10
2023-04-24T23:54:52.911Z,7.10
2023-04-24T23:57:19.735Z,7.00
2023-04-24T23:59:46.486Z,7.00
